Scotter, United Kingdom
Current Conditions -  °F | °C
As of 7:50 AM on Sunday 26 Oct 2014 (Local Time) from EGCN Reporting Station
Scattered Clouds Scattered Clouds  
Wind Chill: 54°   Ceiling: Unl
Heat Index: 54°   Visibility: 6mi
Dew Point: 50°   Wind: 13mph
Humidity: 88%   Direction: 180°S
Pressure: 30"   Gusts: NA
Location:  53.5°N, 0.67°W
Report Text: EGCN 260650Z 18011KT 9999 FEW021 SCT034 12/10 Q1016
Loading
Personal Weather Stations






























Interactive Weather Map
Tropical Storm Tracking
New forecast layout! Learn more

10-Day Weather Forecast

Advertisements
Track Severe Weather on mobile